Time;durP1;ratioP1;P1;durP2;ratioP2;P2;SDS_P1;SDS_P2;PMS_P1;PMS_P2;Temp;Humidity;BMP_temperature;BMP_pressure;BME280_temperature;BME280_humidity;BME280_pressure;Samples;Min_cycle;Max_cycle;Signal;HPM_P1;HPM_P2
2022/01/05 00:02:14;;;;;;;5.70;2.00;;;2.40;99.90;;;;;;4847305;29;20049;-65
2022/01/05 00:04:39;;;;;;;11.68;1.80;;;2.40;99.90;;;;;;4854098;29;20041;-61
2022/01/05 00:07:06;;;;;;;7.65;2.13;;;2.40;99.90;;;;;;4849203;29;20517;-60
2022/01/05 00:09:33;;;;;;;10.20;2.00;;;2.30;99.90;;;;;;4847194;29;20062;-61
2022/01/05 00:11:59;;;;;;;6.72;1.50;;;2.30;99.90;;;;;;4858622;29;20053;-61
2022/01/05 00:14:25;;;;;;;9.48;2.28;;;2.30;99.90;;;;;;4848491;29;20216;-60
2022/01/05 00:16:50;;;;;;;10.45;2.13;;;2.30;99.90;;;;;;4852583;29;20507;-60
2022/01/05 00:19:16;;;;;;;12.13;1.90;;;2.20;99.90;;;;;;4823387;29;20076;-65
2022/01/05 00:21:42;;;;;;;7.68;1.90;;;2.20;99.90;;;;;;4853785;29;20054;-61
2022/01/05 00:24:08;;;;;;;7.57;1.70;;;2.20;99.90;;;;;;4838702;29;20578;-61
2022/01/05 00:26:34;;;;;;;7.68;1.90;;;2.20;99.90;;;;;;4839552;29;20058;-60
2022/01/05 00:29:01;;;;;;;7.93;1.90;;;2.20;99.90;;;;;;4838172;29;20120;-60
2022/01/05 00:31:27;;;;;;;8.55;1.42;;;2.10;99.90;;;;;;4853417;29;20500;-61
2022/01/05 00:33:53;;;;;;;7.65;1.95;;;2.10;99.90;;;;;;4835223;29;20090;-60
2022/01/05 00:36:20;;;;;;;7.28;1.65;;;2.10;99.90;;;;;;4821188;29;20441;-65
2022/01/05 00:38:46;;;;;;;12.68;2.70;;;2.10;99.90;;;;;;4829536;29;20054;-60
2022/01/05 00:41:12;;;;;;;8.45;2.08;;;2.10;99.90;;;;;;4853856;29;20054;-61
2022/01/05 00:43:38;;;;;;;12.68;2.20;;;2.50;99.90;;;;;;4837841;29;20307;-61
2022/01/05 00:46:05;;;;;;;5.55;1.85;;;2.10;99.90;;;;;;4838544;29;20093;-60
2022/01/05 00:48:32;;;;;;;9.52;1.70;;;2.10;99.90;;;;;;4834346;29;20086;-60
2022/01/05 00:51:02;;;;;;;12.50;2.80;;;2.10;99.90;;;;;;4833525;29;20130;-61
2022/01/05 00:53:28;;;;;;;7.07;2.72;;;2.10;99.90;;;;;;4836965;29;20061;-60
2022/01/05 00:55:54;;;;;;;6.40;2.03;;;2.20;99.90;;;;;;4839474;29;20062;-61
2022/01/05 00:58:20;;;;;;;10.85;2.20;;;2.20;99.90;;;;;;4838161;29;20057;-65
2022/01/05 01:00:46;;;;;;;9.38;2.03;;;2.30;99.90;;;;;;4837640;29;20114;-61
2022/01/05 01:03:11;;;;;;;10.32;2.28;;;2.30;99.90;;;;;;4838189;29;20526;-60
2022/01/05 01:05:37;;;;;;;12.40;2.40;;;2.30;99.90;;;;;;4838873;29;20053;-60
2022/01/05 01:08:03;;;;;;;14.73;2.38;;;2.30;99.90;;;;;;4823225;29;20050;-60
2022/01/05 01:10:29;;;;;;;13.25;2.30;;;2.30;99.90;;;;;;4843817;29;20199;-60
2022/01/05 01:12:54;;;;;;;12.20;2.20;;;2.40;99.90;;;;;;4827884;29;20057;-61
2022/01/05 01:15:20;;;;;;;10.25;2.15;;;2.40;99.90;;;;;;4839182;29;20141;-61
2022/01/05 01:17:46;;;;;;;12.07;2.45;;;2.40;99.90;;;;;;4852333;29;20057;-61
2022/01/05 01:20:12;;;;;;;8.52;2.13;;;2.50;99.90;;;;;;4838198;29;20191;-60
2022/01/05 01:22:38;;;;;;;14.55;2.47;;;2.60;99.90;;;;;;4838757;29;20057;-60
2022/01/05 01:25:05;;;;;;;8.52;1.90;;;2.50;99.90;;;;;;4843164;29;20038;-61
2022/01/05 01:27:31;;;;;;;13.50;3.15;;;2.50;99.90;;;;;;4841573;29;20094;-61
2022/01/05 01:29:57;;;;;;;18.00;2.78;;;2.70;99.90;;;;;;4842224;29;20193;-61
2022/01/05 01:32:23;;;;;;;13.65;2.58;;;2.60;99.90;;;;;;4842925;29;20118;-60
2022/01/05 01:34:48;;;;;;;19.15;2.92;;;2.60;99.90;;;;;;4841927;29;20057;-60
2022/01/05 01:37:14;;;;;;;12.82;2.58;;;2.60;99.90;;;;;;4841320;29;20123;-61
2022/01/05 01:39:40;;;;;;;12.50;3.10;;;2.60;99.90;;;;;;4828370;29;20061;-61
2022/01/05 01:42:06;;;;;;;12.05;2.50;;;2.70;99.90;;;;;;4824489;29;20061;-61
2022/01/05 01:44:32;;;;;;;12.75;3.13;;;2.70;99.90;;;;;;4830397;29;20444;-60
2022/01/05 01:46:58;;;;;;;18.67;3.13;;;2.70;99.90;;;;;;4841741;29;20190;-61
2022/01/05 01:49:23;;;;;;;14.73;3.05;;;2.70;99.90;;;;;;4824311;29;20050;-61
2022/01/05 01:51:49;;;;;;;11.38;2.63;;;2.70;99.90;;;;;;4825311;29;20062;-61
2022/01/05 01:54:15;;;;;;;20.23;3.10;;;2.80;99.90;;;;;;4841225;29;20141;-60
2022/01/05 01:56:43;;;;;;;12.23;2.72;;;2.90;99.90;;;;;;4825118;29;20064;-60
2022/01/05 01:59:09;;;;;;;12.15;2.47;;;2.80;99.90;;;;;;4842278;29;20091;-60
2022/01/05 02:01:34;;;;;;;11.35;3.28;;;2.80;99.90;;;;;;4823292;29;20517;-61
2022/01/05 02:04:00;;;;;;;13.27;2.15;;;2.90;99.90;;;;;;4824157;29;20295;-61
2022/01/05 02:06:26;;;;;;;11.10;2.90;;;2.80;99.90;;;;;;4836447;29;20109;-61
2022/01/05 02:08:51;;;;;;;13.20;3.20;;;2.90;99.90;;;;;;4839259;29;20049;-61
2022/01/05 02:11:18;;;;;;;20.05;4.30;;;2.80;99.90;;;;;;4829629;29;20202;-60
2022/01/05 02:13:44;;;;;;;16.48;3.67;;;2.90;99.90;;;;;;4823549;29;20146;-61
2022/01/05 02:16:13;;;;;;;13.57;3.35;;;2.80;99.90;;;;;;4827147;29;20078;-60
2022/01/05 02:21:06;;;;;;;12.65;3.22;;;2.80;99.90;;;;;;4840640;29;20198;-60
2022/01/05 02:23:34;;;;;;;12.43;3.13;;;2.80;99.90;;;;;;4854405;29;20168;-64
2022/01/05 02:26:00;;;;;;;12.05;2.72;;;2.80;99.90;;;;;;4841545;29;20049;-60
2022/01/05 02:28:26;;;;;;;15.13;3.03;;;3.00;99.90;;;;;;4822313;29;20065;-60
2022/01/05 02:30:53;;;;;;;12.82;3.42;;;2.70;99.90;;;;;;4823447;29;20054;-62
2022/01/05 02:33:20;;;;;;;10.20;3.28;;;2.70;99.90;;;;;;4840092;29;20061;-60
2022/01/05 02:35:46;;;;;;;14.52;3.47;;;2.70;99.90;;;;;;4841274;29;20057;-61
2022/01/05 02:38:12;;;;;;;13.20;3.70;;;2.70;99.90;;;;;;4820949;29;20061;-59
2022/01/05 02:40:37;;;;;;;19.00;3.00;;;2.80;99.90;;;;;;4840674;29;20058;-59
2022/01/05 02:43:03;;;;;;;10.10;2.65;;;2.80;99.90;;;;;;4812496;29;20073;-60
2022/01/05 02:45:29;;;;;;;9.90;2.72;;;2.80;99.90;;;;;;4837625;29;20492;-60
2022/01/05 02:47:55;;;;;;;12.70;2.60;;;2.80;99.90;;;;;;4828488;29;20069;-60
2022/01/05 02:50:21;;;;;;;16.58;2.88;;;2.90;99.90;;;;;;4841543;29;20068;-60
2022/01/05 02:52:47;;;;;;;13.83;2.57;;;2.90;99.90;;;;;;4839530;29;20065;-60
2022/01/05 02:55:13;;;;;;;11.35;3.30;;;2.90;99.90;;;;;;4841464;29;20042;-63
2022/01/05 02:57:39;;;;;;;14.25;2.50;;;2.90;99.90;;;;;;4836537;29;20508;-65
2022/01/05 03:00:07;;;;;;;13.30;2.88;;;2.90;99.90;;;;;;4841422;29;20136;-60
2022/01/05 03:02:33;;;;;;;14.88;3.55;;;2.90;99.90;;;;;;4840765;29;20061;-60
2022/01/05 03:04:58;;;;;;;13.45;2.50;;;3.00;99.90;;;;;;4836217;29;20046;-60
2022/01/05 03:07:24;;;;;;;20.23;3.35;;;3.10;99.90;;;;;;4827522;29;20057;-61
2022/01/05 03:09:50;;;;;;;13.65;2.58;;;3.10;99.90;;;;;;4823588;29;20102;-61
2022/01/05 03:12:15;;;;;;;11.13;2.20;;;3.20;99.90;;;;;;4840151;29;20045;-61
2022/01/05 03:14:41;;;;;;;11.25;2.55;;;3.30;99.90;;;;;;4839236;29;20060;-64
2022/01/05 03:17:07;;;;;;;11.52;3.50;;;3.30;99.90;;;;;;4840783;29;20506;-61
2022/01/05 03:19:33;;;;;;;13.10;2.95;;;3.30;99.90;;;;;;4840621;29;20046;-61
2022/01/05 03:21:58;;;;;;;13.07;3.00;;;3.40;99.90;;;;;;4839121;29;20054;-60
2022/01/05 03:24:24;;;;;;;11.80;2.35;;;3.70;99.90;;;;;;4839297;29;20098;-60
2022/01/05 03:26:50;;;;;;;9.63;2.85;;;3.30;99.90;;;;;;4839967;29;20089;-61
2022/01/05 03:29:15;;;;;;;13.77;2.85;;;3.40;99.90;;;;;;4824465;29;20053;-60
2022/01/05 03:31:41;;;;;;;11.60;2.42;;;3.40;99.90;;;;;;4840633;29;20057;-66
2022/01/05 03:34:08;;;;;;;14.02;2.50;;;3.40;99.90;;;;;;4838910;29;20089;-62
2022/01/05 03:36:34;;;;;;;8.13;2.25;;;3.40;99.90;;;;;;4821352;29;20058;-61
2022/01/05 03:39:00;;;;;;;10.18;3.22;;;3.30;99.90;;;;;;4834972;29;20053;-60
2022/01/05 03:41:26;;;;;;;12.38;2.85;;;3.30;99.90;;;;;;4839505;29;20516;-61
2022/01/05 03:43:51;;;;;;;11.98;2.30;;;3.40;99.90;;;;;;4837968;29;20068;-61
2022/01/05 03:46:17;;;;;;;9.35;2.50;;;3.30;99.90;;;;;;4837838;29;20492;-60
2022/01/05 03:48:43;;;;;;;11.88;2.97;;;3.30;99.90;;;;;;4840589;29;20058;-66
2022/01/05 03:51:09;;;;;;;15.30;3.17;;;3.30;99.90;;;;;;4838717;29;20062;-62
2022/01/05 03:53:34;;;;;;;13.15;2.72;;;3.30;99.90;;;;;;4840241;29;20104;-61
2022/01/05 03:56:02;;;;;;;17.67;2.60;;;3.30;99.90;;;;;;4837095;29;20073;-62
2022/01/05 03:58:27;;;;;;;10.70;2.00;;;3.30;99.90;;;;;;4840306;29;20053;-60
2022/01/05 04:00:53;;;;;;;10.02;2.60;;;3.30;99.90;;;;;;4839810;29;20121;-63
2022/01/05 04:03:19;;;;;;;6.82;2.00;;;3.30;99.90;;;;;;4839099;29;20058;-59
2022/01/05 04:05:45;;;;;;;12.07;2.38;;;3.30;99.90;;;;;;4853207;29;20054;-60
2022/01/05 04:08:11;;;;;;;11.65;3.05;;;3.20;99.90;;;;;;4822337;29;20077;-60
2022/01/05 04:10:37;;;;;;;14.77;2.42;;;3.20;99.90;;;;;;4822308;29;20497;-59
2022/01/05 04:13:03;;;;;;;13.38;2.67;;;3.30;99.90;;;;;;4837289;29;20419;-60
2022/01/05 04:15:29;;;;;;;8.07;2.38;;;3.30;99.90;;;;;;4839598;29;20050;-59
2022/01/05 04:17:55;;;;;;;9.75;2.10;;;3.30;99.90;;;;;;4837048;29;20061;-61
2022/01/05 04:20:21;;;;;;;10.93;2.00;;;3.20;99.90;;;;;;4838660;29;20400;-60
2022/01/05 04:22:47;;;;;;;9.73;3.10;;;3.20;99.90;;;;;;4838625;29;20054;-60
2022/01/05 04:25:13;;;;;;;14.45;2.72;;;3.20;99.90;;;;;;4839298;29;20153;-60
2022/01/05 04:27:39;;;;;;;11.73;2.28;;;3.20;99.90;;;;;;4837652;29;20049;-60
2022/01/05 04:30:07;;;;;;;8.00;2.05;;;3.20;99.90;;;;;;4838445;29;20080;-60
2022/01/05 04:32:34;;;;;;;7.28;1.73;;;3.20;99.90;;;;;;4853922;29;20089;-60
2022/01/05 04:35:00;;;;;;;11.57;2.42;;;3.20;99.90;;;;;;4838857;29;20410;-60
2022/01/05 04:37:26;;;;;;;4.93;1.60;;;3.20;99.90;;;;;;4837873;29;20476;-60
2022/01/05 04:39:52;;;;;;;12.85;2.10;;;3.10;99.90;;;;;;4839205;29;20049;-65
2022/01/05 04:42:18;;;;;;;8.50;2.28;;;3.30;99.90;;;;;;4838437;29;20054;-60
2022/01/05 04:44:44;;;;;;;5.30;1.85;;;3.10;99.90;;;;;;4853326;29;20073;-61
2022/01/05 04:47:12;;;;;;;7.80;1.70;;;3.10;99.90;;;;;;4834246;29;20084;-60
2022/01/05 04:49:38;;;;;;;8.75;2.67;;;3.10;99.90;;;;;;4836804;29;20054;-60
2022/01/05 04:52:05;;;;;;;12.05;2.35;;;3.10;99.90;;;;;;4823059;29;20140;-60
2022/01/05 04:54:31;;;;;;;17.85;2.65;;;3.10;99.90;;;;;;4838579;29;20041;-62
2022/01/05 04:56:57;;;;;;;13.75;3.08;;;3.10;99.90;;;;;;4838731;29;20054;-60
2022/01/05 04:59:22;;;;;;;9.13;2.60;;;3.10;99.90;;;;;;4833376;29;20042;-60
2022/01/05 05:01:48;;;;;;;9.82;2.53;;;3.10;99.90;;;;;;4821316;29;20058;-60
2022/01/05 05:04:14;;;;;;;8.70;2.47;;;3.20;99.90;;;;;;4827698;29;20080;-60
2022/01/05 05:06:40;;;;;;;16.98;3.00;;;3.20;99.90;;;;;;4838783;29;20081;-60
2022/01/05 05:09:06;;;;;;;15.10;3.08;;;3.20;99.90;;;;;;4836559;29;20065;-62
2022/01/05 05:11:32;;;;;;;15.23;3.30;;;3.20;99.90;;;;;;4820561;29;20054;-61
2022/01/05 05:13:58;;;;;;;20.65;3.25;;;3.20;99.90;;;;;;4823162;29;20086;-65
2022/01/05 05:16:23;;;;;;;11.93;2.55;;;3.30;99.90;;;;;;4839184;29;20050;-60
2022/01/05 05:18:49;;;;;;;17.33;3.17;;;3.30;99.90;;;;;;4839189;29;20442;-61
2022/01/05 05:21:15;;;;;;;13.50;2.97;;;3.30;99.90;;;;;;4836051;29;20062;-61
2022/01/05 05:23:40;;;;;;;13.85;2.90;;;3.40;99.90;;;;;;4838073;29;20106;-60
2022/01/05 05:26:06;;;;;;;18.05;3.50;;;3.40;99.90;;;;;;4838275;29;20081;-61
2022/01/05 05:28:32;;;;;;;11.18;2.58;;;3.40;99.90;;;;;;4838971;29;20050;-61
2022/01/05 05:30:58;;;;;;;16.63;2.92;;;3.50;99.90;;;;;;4837634;29;20054;-65
2022/01/05 05:33:23;;;;;;;14.43;3.17;;;3.50;99.90;;;;;;4838848;29;20114;-60
2022/01/05 05:35:49;;;;;;;13.75;2.58;;;3.50;99.90;;;;;;4838564;29;20110;-60
2022/01/05 05:38:15;;;;;;;14.52;2.95;;;3.60;99.90;;;;;;4807004;29;20085;-60
2022/01/05 05:40:42;;;;;;;13.73;2.70;;;3.60;99.90;;;;;;4839124;29;20054;-60
2022/01/05 05:43:08;;;;;;;16.70;2.65;;;3.70;99.90;;;;;;4821842;29;20058;-61
2022/01/05 05:45:34;;;;;;;18.42;3.63;;;3.60;99.90;;;;;;4823262;29;20401;-61
2022/01/05 05:48:00;;;;;;;11.50;2.70;;;3.60;99.90;;;;;;4822622;29;20517;-66
2022/01/05 05:50:26;;;;;;;7.22;2.05;;;3.60;99.90;;;;;;4838071;29;20153;-61
2022/01/05 05:52:52;;;;;;;9.70;2.58;;;3.60;99.90;;;;;;4836444;29;20145;-61
2022/01/05 05:55:17;;;;;;;11.25;2.30;;;3.50;99.90;;;;;;4838470;29;20471;-62
2022/01/05 05:57:44;;;;;;;10.50;2.38;;;3.40;99.90;;;;;;4838975;29;20537;-61
2022/01/05 06:00:10;;;;;;;11.55;2.60;;;3.30;99.90;;;;;;4837163;29;20057;-61
2022/01/05 06:02:36;;;;;;;9.88;2.30;;;3.30;99.90;;;;;;4833274;29;20420;-60
2022/01/05 06:05:03;;;;;;;10.35;2.22;;;3.30;99.90;;;;;;4804025;29;20079;-64
2022/01/05 06:07:29;;;;;;;11.00;2.78;;;3.40;99.90;;;;;;4830267;29;20077;-60
2022/01/05 06:09:54;;;;;;;10.10;2.22;;;3.40;99.90;;;;;;4841922;29;20539;-63
2022/01/05 06:12:20;;;;;;;15.27;3.15;;;3.40;99.90;;;;;;4839825;29;20057;-61
2022/01/05 06:14:46;;;;;;;10.93;3.03;;;3.50;99.90;;;;;;4824974;29;20057;-61
2022/01/05 06:17:12;;;;;;;10.40;2.05;;;3.50;99.90;;;;;;4840917;29;20053;-62
2022/01/05 06:19:38;;;;;;;9.68;2.00;;;3.50;99.90;;;;;;4841741;29;20683;-61
2022/01/05 06:22:04;;;;;;;10.32;2.67;;;3.50;99.90;;;;;;4842455;29;20050;-62
2022/01/05 06:24:29;;;;;;;16.05;2.72;;;3.60;99.90;;;;;;4839967;29;20488;-61
2022/01/05 06:26:55;;;;;;;7.90;1.92;;;3.60;99.90;;;;;;4842143;29;20100;-60
2022/01/05 06:29:21;;;;;;;16.45;2.40;;;3.60;99.90;;;;;;4839481;29;20100;-60
2022/01/05 06:31:47;;;;;;;11.75;2.33;;;3.60;99.90;;;;;;4844731;29;20076;-62
2022/01/05 06:34:13;;;;;;;14.10;2.40;;;3.60;99.90;;;;;;4852122;29;20081;-61
2022/01/05 06:36:39;;;;;;;16.92;3.20;;;3.70;99.90;;;;;;4843228;29;20084;-62
2022/01/05 06:39:05;;;;;;;12.88;2.85;;;3.70;99.90;;;;;;4850043;29;20483;-61
2022/01/05 06:41:31;;;;;;;14.90;2.80;;;3.80;99.90;;;;;;4837883;29;20392;-61
2022/01/05 06:43:57;;;;;;;21.30;3.17;;;3.80;99.90;;;;;;4840610;29;20049;-63
2022/01/05 06:46:23;;;;;;;18.08;3.42;;;3.80;99.90;;;;;;4840702;29;20422;-61
2022/01/05 06:48:49;;;;;;;14.20;2.30;;;3.90;99.90;;;;;;4839974;29;20049;-60
2022/01/05 06:51:15;;;;;;;12.90;2.53;;;3.90;99.90;;;;;;4839557;29;20062;-61
2022/01/05 06:53:40;;;;;;;17.65;2.83;;;3.90;99.90;;;;;;4841857;29;20489;-61
2022/01/05 06:56:06;;;;;;;11.07;2.08;;;3.90;99.90;;;;;;4838962;29;20053;-60
2022/01/05 06:58:32;;;;;;;14.50;2.60;;;4.00;99.90;;;;;;4821288;29;20841;-61
2022/01/05 07:00:58;;;;;;;11.88;2.63;;;4.00;99.90;;;;;;4838023;29;20091;-61
2022/01/05 07:03:23;;;;;;;14.02;3.13;;;4.00;99.90;;;;;;4840963;29;20412;-61
2022/01/05 07:05:49;;;;;;;19.38;3.08;;;4.00;99.90;;;;;;4836526;29;20102;-61
2022/01/05 07:08:15;;;;;;;10.23;2.35;;;4.00;99.90;;;;;;4828153;29;20054;-61
2022/01/05 07:10:41;;;;;;;11.30;2.03;;;4.00;99.90;;;;;;4841155;29;20050;-61
2022/01/05 07:13:07;;;;;;;10.95;2.00;;;4.00;99.90;;;;;;4841352;29;20411;-61
2022/01/05 07:15:33;;;;;;;13.38;2.85;;;4.10;99.90;;;;;;4854962;29;20226;-62
2022/01/05 07:17:59;;;;;;;8.57;2.05;;;4.00;99.90;;;;;;4823038;29;20528;-61
2022/01/05 07:20:25;;;;;;;9.82;1.98;;;4.10;99.90;;;;;;4838142;29;20117;-62
2022/01/05 07:22:51;;;;;;;10.55;2.03;;;4.10;99.90;;;;;;4825157;29;20122;-60
2022/01/05 07:25:17;;;;;;;8.65;1.98;;;4.10;99.90;;;;;;4840656;29;20046;-61
2022/01/05 07:27:43;;;;;;;11.38;1.95;;;4.00;99.90;;;;;;4829079;29;20054;-60
2022/01/05 07:30:09;;;;;;;7.38;1.63;;;4.00;99.90;;;;;;4832621;29;20050;-63
2022/01/05 07:32:35;;;;;;;13.63;2.42;;;4.00;99.90;;;;;;4824121;29;20568;-62
2022/01/05 07:35:01;;;;;;;12.60;2.47;;;4.00;99.90;;;;;;4839687;29;20113;-61
2022/01/05 07:37:27;;;;;;;14.50;3.40;;;4.00;99.90;;;;;;4838878;29;20129;-61
2022/01/05 07:39:53;;;;;;;11.38;2.60;;;4.00;99.90;;;;;;4839093;29;20254;-61
2022/01/05 07:42:19;;;;;;;14.57;2.50;;;4.00;99.90;;;;;;4839562;29;20081;-63
2022/01/05 07:44:45;;;;;;;11.43;2.15;;;4.10;99.90;;;;;;4840201;29;20050;-62
2022/01/05 07:47:11;;;;;;;9.40;2.42;;;4.10;99.90;;;;;;4840284;29;20068;-63
2022/01/05 07:49:38;;;;;;;12.23;2.13;;;4.10;99.90;;;;;;4832971;29;20050;-62
2022/01/05 07:52:05;;;;;;;11.40;1.98;;;4.00;99.90;;;;;;4837231;29;20069;-61
2022/01/05 07:54:32;;;;;;;12.30;2.63;;;4.00;99.90;;;;;;4823464;29;20133;-62
2022/01/05 07:56:58;;;;;;;9.00;1.90;;;4.00;99.90;;;;;;4840744;29;20515;-61
2022/01/05 07:59:24;;;;;;;8.48;2.00;;;4.10;99.90;;;;;;4852251;29;20046;-60
2022/01/05 08:01:50;;;;;;;12.73;2.30;;;4.20;99.90;;;;;;4840052;29;20065;-61
2022/01/05 08:04:16;;;;;;;12.77;2.75;;;4.20;99.90;;;;;;4837764;29;20046;-62
2022/01/05 08:06:42;;;;;;;10.35;2.38;;;4.20;99.90;;;;;;4827762;29;20121;-62
2022/01/05 08:09:08;;;;;;;8.48;1.90;;;4.30;99.90;;;;;;4847315;29;20065;-61
2022/01/05 08:11:34;;;;;;;11.77;1.60;;;4.30;99.90;;;;;;4838624;29;20064;-61
2022/01/05 08:14:00;;;;;;;10.15;1.80;;;4.30;99.90;;;;;;4838525;29;20133;-62
2022/01/05 08:16:26;;;;;;;7.07;1.80;;;4.40;99.90;;;;;;4839276;29;20111;-62
2022/01/05 08:18:53;;;;;;;9.73;1.67;;;4.40;99.90;;;;;;4838727;29;20117;-62
2022/01/05 08:21:20;;;;;;;8.43;1.70;;;4.40;99.90;;;;;;4838864;29;20500;-61
2022/01/05 08:23:46;;;;;;;9.15;2.13;;;4.50;99.90;;;;;;4839018;29;20049;-61
2022/01/05 08:26:12;;;;;;;13.18;2.28;;;4.40;99.90;;;;;;4838433;29;20053;-60
2022/01/05 08:28:37;;;;;;;9.85;2.05;;;4.40;99.90;;;;;;4838630;29;20049;-62
2022/01/05 08:31:03;;;;;;;10.48;2.40;;;4.50;99.90;;;;;;4837819;29;20081;-60
2022/01/05 08:33:29;;;;;;;11.48;2.35;;;4.40;99.90;;;;;;4839221;29;20064;-61
2022/01/05 08:35:55;;;;;;;10.68;1.98;;;4.50;99.90;;;;;;4835171;29;20064;-61
2022/01/05 08:38:21;;;;;;;11.27;2.00;;;4.50;99.90;;;;;;4839116;29;20053;-61
2022/01/05 08:40:46;;;;;;;16.52;2.97;;;4.50;99.90;;;;;;4839023;29;20093;-62
2022/01/05 08:43:13;;;;;;;13.70;2.70;;;4.60;99.90;;;;;;4838302;29;20365;-63
2022/01/05 08:45:41;;;;;;;17.38;3.42;;;4.70;99.90;;;;;;4839438;29;20042;-63
2022/01/05 08:48:06;;;;;;;19.15;2.95;;;4.70;99.90;;;;;;4838009;29;20098;-61
2022/01/05 08:50:33;;;;;;;17.50;3.55;;;4.80;99.90;;;;;;4834649;29;20066;-61
2022/01/05 08:53:00;;;;;;;19.67;3.40;;;4.90;99.90;;;;;;4824858;29;20488;-61
2022/01/05 08:55:35;;;;;;;17.33;3.35;;;5.00;99.90;;;;;;4853539;29;20504;-65
2022/01/05 08:58:02;;;;;;;24.33;3.42;;;5.00;99.90;;;;;;4838322;29;20145;-61
2022/01/05 09:00:27;;;;;;;14.82;2.97;;;5.00;99.90;;;;;;4853617;29;20053;-66
2022/01/05 09:02:53;;;;;;;16.00;2.90;;;5.10;99.90;;;;;;4838131;29;20087;-62
2022/01/05 09:05:19;;;;;;;17.67;3.35;;;5.00;99.90;;;;;;4839222;29;20046;-61
2022/01/05 09:07:45;;;;;;;13.35;2.97;;;5.10;99.90;;;;;;4838732;29;20054;-61
2022/01/05 09:10:11;;;;;;;27.85;4.47;;;5.00;99.90;;;;;;4839426;29;20116;-61
2022/01/05 09:12:37;;;;;;;15.90;2.85;;;5.10;99.90;;;;;;4837667;29;20050;-61
2022/01/05 09:15:05;;;;;;;17.95;2.95;;;5.10;99.90;;;;;;4839450;29;20162;-61
2022/01/05 09:17:31;;;;;;;18.15;3.45;;;5.10;99.90;;;;;;4844252;29;20060;-65
2022/01/05 09:19:57;;;;;;;16.02;3.28;;;5.10;99.90;;;;;;4839337;29;20057;-61
2022/01/05 09:22:23;;;;;;;14.35;3.13;;;5.00;99.90;;;;;;4838187;29;20437;-61
2022/01/05 09:24:50;;;;;;;18.10;2.60;;;5.00;99.90;;;;;;4852396;29;20479;-62
2022/01/05 09:27:16;;;;;;;14.02;3.40;;;5.00;99.90;;;;;;4839093;29;20144;-61
2022/01/05 09:29:43;;;;;;;12.77;2.80;;;5.10;99.90;;;;;;4852843;29;20093;-61
2022/01/05 09:32:09;;;;;;;17.25;2.97;;;5.10;99.90;;;;;;4836838;29;20058;-63
2022/01/05 09:34:40;;;;;;;13.55;2.88;;;5.20;99.90;;;;;;4837893;29;20054;-63
2022/01/05 09:37:13;;;;;;;12.93;2.85;;;5.30;99.90;;;;;;4837583;29;20488;-60
2022/01/05 09:42:23;;;;;;;20.30;3.30;;;5.50;99.90;;;;;;4838682;29;20068;-60
2022/01/05 09:44:51;;;;;;;14.05;3.10;;;5.60;99.90;;;;;;4841852;29;20150;-61
2022/01/05 09:47:18;;;;;;;18.05;4.22;;;5.60;99.90;;;;;;4831943;29;20466;-60
2022/01/05 09:49:57;;;;;;;13.00;2.90;;;5.70;99.90;;;;;;4832853;29;20515;-60
2022/01/05 09:52:24;;;;;;;18.00;2.80;;;5.90;99.90;;;;;;4841369;29;20097;-60
2022/01/05 09:54:51;;;;;;;14.77;3.58;;;5.90;99.90;;;;;;4841441;29;20073;-60
2022/01/05 09:57:19;;;;;;;15.25;3.15;;;5.90;99.90;;;;;;4835547;29;20050;-61
2022/01/05 09:59:46;;;;;;;14.25;2.85;;;5.90;99.90;;;;;;4813858;29;20197;-60
2022/01/05 10:02:15;;;;;;;22.27;3.78;;;5.90;99.90;;;;;;4842246;29;20050;-61
2022/01/05 10:04:41;;;;;;;15.35;2.97;;;5.90;99.90;;;;;;4825368;29;20049;-60
2022/01/05 10:07:08;;;;;;;17.17;3.20;;;5.90;99.90;;;;;;4838236;29;20058;-61
2022/01/05 10:09:36;;;;;;;17.23;3.05;;;6.00;99.90;;;;;;4842176;29;20057;-60
2022/01/05 10:12:03;;;;;;;16.35;3.72;;;6.10;99.90;;;;;;4840547;29;20054;-60
2022/01/05 10:14:29;;;;;;;16.58;2.97;;;6.10;99.90;;;;;;4841958;29;20054;-59
2022/01/05 10:17:08;;;;;;;21.08;4.35;;;6.10;99.90;;;;;;4821888;29;20097;-61
2022/01/05 10:19:36;;;;;;;18.60;3.70;;;6.20;99.90;;;;;;4823814;29;20054;-59
2022/01/05 10:22:04;;;;;;;10.18;2.65;;;6.20;99.90;;;;;;4836734;29;20057;-60
2022/01/05 10:24:43;;;;;;;18.58;3.00;;;6.30;99.90;;;;;;4841652;29;20389;-60
2022/01/05 10:27:18;;;;;;;18.88;3.60;;;6.30;99.90;;;;;;4838727;29;20090;-60
2022/01/05 10:30:14;;;;;;;20.13;3.33;;;6.30;99.90;;;;;;4840455;29;20433;-60
2022/01/05 10:32:44;;;;;;;15.38;3.10;;;6.40;99.90;;;;;;4850152;29;20141;-61
2022/01/05 10:35:16;;;;;;;23.95;3.70;;;6.40;99.90;;;;;;4851661;29;20049;-60
2022/01/05 10:37:44;;;;;;;18.65;3.20;;;6.40;99.90;;;;;;4841456;29;20060;-65
2022/01/05 10:40:20;;;;;;;19.05;3.80;;;6.50;99.90;;;;;;4841409;29;20132;-61
2022/01/05 10:42:52;;;;;;;14.20;2.97;;;6.50;99.90;;;;;;4839654;29;20140;-62
2022/01/05 10:45:37;;;;;;;14.82;3.15;;;6.60;99.90;;;;;;4841836;29;20045;-61
2022/01/05 10:48:08;;;;;;;24.35;3.92;;;6.60;99.90;;;;;;4840666;29;20050;-60
2022/01/05 10:50:35;;;;;;;12.48;3.47;;;6.60;99.90;;;;;;4854934;29;20069;-62
2022/01/05 10:53:02;;;;;;;21.42;4.15;;;6.70;99.90;;;;;;4840348;29;20170;-60
2022/01/05 10:55:30;;;;;;;22.75;3.95;;;6.70;99.90;;;;;;4839720;29;20054;-60
2022/01/05 10:58:10;;;;;;;18.95;4.38;;;6.70;99.90;;;;;;4840652;29;20060;-61
2022/01/05 11:00:44;;;;;;;20.75;3.67;;;6.70;99.90;;;;;;4846020;29;20062;-60
2022/01/05 11:03:30;;;;;;;22.88;4.43;;;6.80;99.90;;;;;;4844712;29;20202;-60
2022/01/05 11:06:04;;;;;;;21.05;3.88;;;6.90;99.90;;;;;;4840264;29;20206;-60
2022/01/05 11:08:31;;;;;;;21.52;3.67;;;7.00;99.90;;;;;;4831128;29;20136;-60
2022/01/05 11:10:57;;;;;;;22.50;3.63;;;7.00;99.90;;;;;;4828851;29;20054;-59
2022/01/05 11:13:25;;;;;;;20.25;4.38;;;7.00;99.90;;;;;;4854907;29;20082;-59
2022/01/05 11:15:57;;;;;;;15.63;3.25;;;7.00;99.90;;;;;;4819863;29;20061;-59
2022/01/05 11:18:23;;;;;;;26.30;4.55;;;7.00;99.90;;;;;;4836919;29;20089;-59
2022/01/05 11:20:52;;;;;;;18.05;4.20;;;7.10;99.90;;;;;;4837428;29;20049;-61
2022/01/05 11:23:22;;;;;;;18.33;3.72;;;7.10;99.90;;;;;;4838644;29;20061;-60
2022/01/05 11:25:50;;;;;;;21.67;4.88;;;7.10;99.90;;;;;;4840113;29;20057;-62
2022/01/05 11:28:18;;;;;;;17.60;3.85;;;7.10;99.90;;;;;;4839060;29;20064;-60
2022/01/05 11:30:46;;;;;;;22.00;4.93;;;7.10;99.90;;;;;;4829459;29;20124;-60
2022/01/05 11:33:12;;;;;;;18.30;4.20;;;7.20;99.90;;;;;;4838858;29;20496;-59
2022/01/05 11:35:38;;;;;;;24.02;4.22;;;7.20;99.90;;;;;;4824629;29;20129;-59
2022/01/05 11:38:05;;;;;;;19.75;4.50;;;7.20;99.90;;;;;;4838648;29;20077;-60
2022/01/05 11:40:33;;;;;;;20.33;3.65;;;7.20;99.90;;;;;;4837943;29;20135;-59
2022/01/05 11:43:03;;;;;;;26.88;3.88;;;7.30;99.90;;;;;;4838026;29;20078;-59
2022/01/05 11:45:34;;;;;;;19.33;4.03;;;7.40;99.90;;;;;;4839013;29;20106;-60
2022/01/05 11:48:21;;;;;;;23.83;4.45;;;7.40;99.90;;;;;;4831815;29;20090;-61
2022/01/05 11:50:59;;;;;;;15.98;3.28;;;7.40;99.90;;;;;;4834479;29;20113;-60
2022/01/05 11:53:45;;;;;;;29.20;4.90;;;7.40;99.90;;;;;;4840085;29;20162;-60
2022/01/05 11:56:15;;;;;;;20.27;3.63;;;7.40;99.90;;;;;;4821795;29;20141;-60
2022/01/05 11:58:55;;;;;;;16.92;4.00;;;7.30;99.90;;;;;;4823253;29;20361;-60
2022/01/05 12:01:25;;;;;;;23.48;4.28;;;7.30;99.90;;;;;;4833652;29;20065;-60
2022/01/05 12:03:57;;;;;;;20.80;3.70;;;7.30;99.90;;;;;;4838947;29;20687;-59
2022/01/05 12:06:30;;;;;;;16.05;2.97;;;7.40;99.90;;;;;;4839333;29;20050;-60
2022/01/05 12:08:57;;;;;;;15.52;3.80;;;7.40;99.90;;;;;;4839414;29;20050;-62
2022/01/05 12:11:44;;;;;;;19.90;3.40;;;7.40;99.90;;;;;;4846559;29;20098;-60
2022/01/05 12:14:21;;;;;;;16.45;3.38;;;7.40;99.90;;;;;;4839304;29;20480;-61
2022/01/05 12:16:59;;;;;;;12.40;2.63;;;7.40;99.90;;;;;;4838702;29;20054;-61
2022/01/05 12:19:55;;;;;;;14.95;3.45;;;7.40;99.90;;;;;;4840180;29;20069;-60
2022/01/05 12:22:21;;;;;;;14.30;2.55;;;7.30;99.90;;;;;;4838965;29;20050;-60
2022/01/05 12:24:53;;;;;;;12.35;2.42;;;7.20;99.90;;;;;;4839764;29;20101;-60
2022/01/05 12:27:19;;;;;;;13.73;2.75;;;7.10;99.90;;;;;;4839204;29;20058;-61
2022/01/05 12:29:46;;;;;;;13.43;3.00;;;6.90;99.90;;;;;;4838911;29;20150;-59
2022/01/05 12:32:37;;;;;;;15.60;3.35;;;7.10;99.90;;;;;;4837548;29;20121;-60
2022/01/05 12:35:19;;;;;;;19.88;3.05;;;7.10;99.90;;;;;;4837732;29;20050;-60
2022/01/05 12:37:55;;;;;;;13.60;2.53;;;7.10;99.90;;;;;;4839860;29;20062;-61
2022/01/05 12:40:28;;;;;;;17.83;3.53;;;7.10;99.90;;;;;;4839116;29;20054;-59
2022/01/05 12:43:06;;;;;;;23.45;4.07;;;7.10;99.90;;;;;;4839359;29;20054;-60
2022/01/05 12:45:54;;;;;;;19.88;3.70;;;7.10;99.90;;;;;;4839308;29;20054;-63
2022/01/05 12:48:43;;;;;;;21.17;3.65;;;7.20;99.90;;;;;;4839800;29;20132;-61
2022/01/05 12:51:14;;;;;;;17.85;3.45;;;7.10;99.90;;;;;;4837581;29;20118;-59
2022/01/05 12:54:01;;;;;;;16.70;2.97;;;7.00;99.90;;;;;;4832639;29;20137;-59
2022/01/05 12:56:51;;;;;;;16.85;4.10;;;7.00;99.90;;;;;;4838124;29;20072;-60